createdAt,value
2022-11-30T00:03:40.087Z,76.85
2022-11-30T00:06:11.776Z,81.50
2022-11-30T00:08:38.687Z,75.97
2022-11-30T00:11:13.749Z,78.43
2022-11-30T00:13:41.266Z,81.93
2022-11-30T00:16:08.764Z,80.68
2022-11-30T00:18:36.599Z,79.05
2022-11-30T00:21:06.144Z,80.47
2022-11-30T00:23:38.100Z,81.75
2022-11-30T00:26:07.868Z,81.72
2022-11-30T00:28:35.785Z,81.35
2022-11-30T00:31:05.306Z,79.80
2022-11-30T00:33:33.914Z,81.78
2022-11-30T00:36:03.911Z,78.20
2022-11-30T00:38:32.078Z,83.63
2022-11-30T00:43:25.964Z,80.33
2022-11-30T00:45:52.842Z,78.28
2022-11-30T00:48:19.799Z,77.80
2022-11-30T00:50:48.818Z,86.53
2022-11-30T00:53:15.925Z,81.93
2022-11-30T00:55:43.805Z,80.70
2022-11-30T00:58:11.885Z,82.78
2022-11-30T01:00:40.609Z,83.18
2022-11-30T01:03:07.550Z,81.10
2022-11-30T01:05:34.906Z,85.80
2022-11-30T01:08:02.792Z,79.27
2022-11-30T01:10:29.895Z,82.30
2022-11-30T01:12:57.023Z,83.35
2022-11-30T01:15:24.144Z,81.97
2022-11-30T01:17:50.982Z,79.28
2022-11-30T01:20:18.017Z,82.43
2022-11-30T01:22:45.008Z,80.60
2022-11-30T01:25:11.849Z,81.22
2022-11-30T01:27:38.630Z,76.15
2022-11-30T01:30:06.128Z,75.25
2022-11-30T01:32:32.866Z,75.97
2022-11-30T01:34:59.692Z,83.10
2022-11-30T01:37:29.740Z,82.82
2022-11-30T01:39:56.578Z,76.50
2022-11-30T01:42:23.386Z,78.97
2022-11-30T01:45:00.906Z,81.80
2022-11-30T01:47:37.438Z,85.93
2022-11-30T01:50:08.742Z,79.55
2022-11-30T01:52:46.706Z,80.22
2022-11-30T01:57:57.575Z,80.82
2022-11-30T02:00:24.491Z,78.45
2022-11-30T02:03:01.934Z,80.13
2022-11-30T02:05:29.247Z,85.82
2022-11-30T02:07:56.283Z,86.23
2022-11-30T02:10:30.129Z,87.83
2022-11-30T02:13:24.744Z,87.55
2022-11-30T02:16:17.514Z,83.82
2022-11-30T02:18:59.191Z,92.13
2022-11-30T02:21:46.270Z,83.78
2022-11-30T02:24:42.175Z,93.80
2022-11-30T02:27:19.585Z,84.32
2022-11-30T02:29:55.723Z,84.43
2022-11-30T02:32:39.279Z,88.22
2022-11-30T02:35:08.784Z,86.43
2022-11-30T02:37:37.669Z,84.03
2022-11-30T02:40:13.681Z,85.85
2022-11-30T02:42:40.497Z,93.43
2022-11-30T02:45:08.498Z,86.32
2022-11-30T02:47:41.952Z,88.53
2022-11-30T02:50:21.064Z,91.22
2022-11-30T02:52:49.761Z,92.05
2022-11-30T02:55:18.720Z,83.80
2022-11-30T02:57:45.657Z,91.03
2022-11-30T03:00:13.938Z,85.60
2022-11-30T03:02:41.442Z,89.53
2022-11-30T03:05:09.066Z,93.28
2022-11-30T03:07:36.161Z,89.32
2022-11-30T03:10:03.614Z,89.10
2022-11-30T03:12:30.452Z,88.85
2022-11-30T03:14:57.186Z,89.88
2022-11-30T03:17:24.025Z,86.75
2022-11-30T03:19:51.008Z,84.90
2022-11-30T03:22:20.798Z,86.18
2022-11-30T03:24:47.865Z,84.97
2022-11-30T03:27:15.028Z,83.90
2022-11-30T03:29:41.994Z,84.32
2022-11-30T03:32:08.805Z,82.38
2022-11-30T03:34:35.643Z,102.07
2022-11-30T03:37:02.422Z,95.50
2022-11-30T03:39:29.199Z,93.43
2022-11-30T03:41:56.041Z,89.85
2022-11-30T03:44:23.043Z,84.15
2022-11-30T03:46:49.848Z,85.55
2022-11-30T03:49:16.841Z,82.53
2022-11-30T03:51:43.599Z,83.47
2022-11-30T03:54:10.347Z,84.75
2022-11-30T03:56:37.204Z,82.25
2022-11-30T03:59:03.965Z,80.30
2022-11-30T04:01:30.865Z,82.95
2022-11-30T04:03:57.779Z,82.57
2022-11-30T04:06:24.964Z,80.50
2022-11-30T04:08:51.705Z,81.13
2022-11-30T04:11:18.730Z,80.82
2022-11-30T04:13:45.597Z,80.38
2022-11-30T04:16:12.700Z,77.38
2022-11-30T04:18:39.745Z,77.05
2022-11-30T04:21:07.467Z,80.15
2022-11-30T04:23:39.947Z,83.35
2022-11-30T04:26:10.972Z,79.47
2022-11-30T04:28:37.956Z,85.45
2022-11-30T04:31:05.568Z,80.03
2022-11-30T04:33:32.667Z,89.00
2022-11-30T04:36:01.953Z,85.75
2022-11-30T04:38:29.584Z,77.45
2022-11-30T04:40:56.608Z,82.50
2022-11-30T04:43:23.854Z,83.60
2022-11-30T04:45:51.274Z,79.83
2022-11-30T04:48:19.646Z,78.63
2022-11-30T04:50:46.485Z,79.78
2022-11-30T04:53:13.331Z,74.57
2022-11-30T04:55:40.120Z,76.78
2022-11-30T04:58:07.626Z,78.63
2022-11-30T05:00:35.405Z,79.22
2022-11-30T05:03:02.697Z,76.20
2022-11-30T05:05:29.454Z,76.83
2022-11-30T05:07:58.117Z,77.45
2022-11-30T05:10:25.931Z,73.25
2022-11-30T05:12:52.755Z,76.28
2022-11-30T05:15:19.669Z,77.03
2022-11-30T05:17:46.392Z,78.72
2022-11-30T05:20:13.344Z,76.53
2022-11-30T05:22:40.249Z,78.07
2022-11-30T05:25:07.642Z,80.30
2022-11-30T05:27:35.285Z,78.00
2022-11-30T05:30:02.203Z,75.88
2022-11-30T05:32:28.967Z,75.20
2022-11-30T05:34:55.997Z,76.97
2022-11-30T05:37:22.949Z,74.63
2022-11-30T05:39:49.787Z,79.00
2022-11-30T05:42:16.608Z,77.75
2022-11-30T05:44:43.469Z,76.40
2022-11-30T05:47:10.345Z,76.50
2022-11-30T05:49:37.290Z,70.25
2022-11-30T05:52:04.202Z,69.47
2022-11-30T05:54:31.014Z,71.78
2022-11-30T05:56:57.979Z,70.57
2022-11-30T05:59:24.811Z,74.53
2022-11-30T06:01:55.032Z,78.20
2022-11-30T06:04:22.489Z,72.35
2022-11-30T06:06:49.563Z,76.35
2022-11-30T06:09:16.747Z,75.87
2022-11-30T06:11:43.525Z,75.55
2022-11-30T06:14:10.293Z,77.00
2022-11-30T06:16:40.170Z,74.90
2022-11-30T06:19:07.242Z,73.50
2022-11-30T06:21:34.136Z,73.82
2022-11-30T06:24:01.189Z,75.63
2022-11-30T06:26:27.960Z,76.00
2022-11-30T06:28:54.738Z,74.90
2022-11-30T06:31:21.698Z,79.90
2022-11-30T06:33:48.934Z,77.35
2022-11-30T06:36:24.072Z,72.93
2022-11-30T06:38:51.623Z,74.88
2022-11-30T06:41:18.820Z,78.25
2022-11-30T06:43:45.737Z,73.17
2022-11-30T06:46:12.652Z,74.18
2022-11-30T06:48:39.625Z,73.57
2022-11-30T06:51:08.468Z,74.43
2022-11-30T06:53:35.765Z,76.00
2022-11-30T06:56:10.293Z,71.60
2022-11-30T06:58:41.189Z,73.28
2022-11-30T07:01:11.414Z,71.10
2022-11-30T07:03:38.785Z,77.35
2022-11-30T07:06:11.195Z,79.70
2022-11-30T07:08:38.977Z,74.40
2022-11-30T07:11:07.089Z,70.78
2022-11-30T07:16:04.532Z,68.38
2022-11-30T07:18:32.259Z,73.80
2022-11-30T07:26:22.042Z,69.30
2022-11-30T07:28:55.017Z,72.78
2022-11-30T07:31:25.387Z,71.60
2022-11-30T07:33:52.956Z,68.30
2022-11-30T07:36:22.065Z,67.97
2022-11-30T07:38:49.479Z,64.18
2022-11-30T07:41:16.451Z,66.60
2022-11-30T07:43:43.565Z,70.15
2022-11-30T07:46:12.840Z,70.07
2022-11-30T07:48:39.877Z,67.47
2022-11-30T07:51:18.253Z,64.35
2022-11-30T07:53:45.695Z,69.72
2022-11-30T07:56:19.791Z,53.10
2022-11-30T07:58:47.180Z,63.33
2022-11-30T08:01:19.724Z,63.08
2022-11-30T08:03:46.864Z,60.28
2022-11-30T08:06:15.919Z,63.65
2022-11-30T08:08:44.538Z,64.53
2022-11-30T08:11:14.037Z,58.70
2022-11-30T08:13:41.116Z,60.90
2022-11-30T08:16:10.967Z,62.50
2022-11-30T08:18:37.834Z,62.30
2022-11-30T08:21:06.564Z,58.90
2022-11-30T08:23:39.149Z,58.70
2022-11-30T08:26:16.303Z,58.78
2022-11-30T08:28:44.728Z,59.47
2022-11-30T08:31:23.234Z,56.45
2022-11-30T08:33:54.390Z,57.72
2022-11-30T08:36:23.008Z,54.72
2022-11-30T08:38:49.868Z,58.38
2022-11-30T08:41:19.467Z,53.53
2022-11-30T08:43:47.050Z,60.08
2022-11-30T08:46:43.042Z,57.00
2022-11-30T08:49:20.381Z,55.70
2022-11-30T08:52:15.921Z,55.25
2022-11-30T08:54:35.619Z,54.83
2022-11-30T08:57:02.401Z,55.03
2022-11-30T08:59:31.261Z,54.55
2022-11-30T09:01:58.009Z,50.22
2022-11-30T09:04:24.915Z,51.90
2022-11-30T09:06:51.680Z,52.58
2022-11-30T09:09:18.512Z,48.78
2022-11-30T09:11:45.396Z,49.97
2022-11-30T09:14:12.144Z,49.60
2022-11-30T09:16:39.045Z,51.83
2022-11-30T09:19:05.895Z,49.65
2022-11-30T09:21:32.974Z,49.30
2022-11-30T09:23:59.817Z,48.47
2022-11-30T09:26:26.732Z,46.58
2022-11-30T09:28:54.353Z,45.92
2022-11-30T09:31:23.526Z,46.15
2022-11-30T09:33:50.775Z,45.45
2022-11-30T09:36:20.858Z,45.63
2022-11-30T09:38:48.588Z,42.20
2022-11-30T09:41:45.993Z,45.25
2022-11-30T09:44:28.121Z,47.67
2022-11-30T09:46:55.056Z,43.30
2022-11-30T09:49:30.051Z,41.00
2022-11-30T09:52:00.708Z,38.92
2022-11-30T09:54:35.332Z,40.38
2022-11-30T09:57:27.441Z,41.45
2022-11-30T10:00:01.369Z,41.67
2022-11-30T10:02:38.646Z,41.83
2022-11-30T10:05:17.766Z,37.97
2022-11-30T10:08:10.187Z,42.58
2022-11-30T10:10:45.942Z,40.83
2022-11-30T10:13:18.350Z,38.85
2022-11-30T10:16:00.764Z,40.83
2022-11-30T10:18:46.229Z,46.38
2022-11-30T10:22:00.294Z,38.65
2022-11-30T10:25:11.523Z,38.03
2022-11-30T10:27:52.381Z,40.05
2022-11-30T10:30:31.921Z,34.30
2022-11-30T10:33:05.687Z,32.67
2022-11-30T10:35:38.455Z,34.60
2022-11-30T10:38:14.813Z,29.92
2022-11-30T10:40:51.202Z,33.20
2022-11-30T10:43:26.324Z,31.20
2022-11-30T10:45:53.562Z,32.90
2022-11-30T10:48:31.557Z,31.57
2022-11-30T10:51:00.464Z,32.47
2022-11-30T10:53:30.224Z,31.88
2022-11-30T10:56:02.784Z,31.83
2022-11-30T10:58:38.347Z,34.95
2022-11-30T11:01:11.879Z,31.77
2022-11-30T11:03:38.912Z,29.35
2022-11-30T11:06:23.496Z,30.15
2022-11-30T11:08:50.836Z,31.58
2022-11-30T11:11:34.624Z,30.27
2022-11-30T11:14:20.745Z,28.75
2022-11-30T11:17:04.767Z,32.17
2022-11-30T11:19:38.730Z,31.83
2022-11-30T11:22:14.141Z,29.33
2022-11-30T11:24:41.089Z,33.17
2022-11-30T11:27:27.269Z,29.60
2022-11-30T11:30:04.957Z,27.92
2022-11-30T11:32:33.011Z,30.75
2022-11-30T11:35:00.153Z,29.67
2022-11-30T11:37:30.911Z,30.85
2022-11-30T11:39:59.422Z,28.27
2022-11-30T11:42:28.948Z,29.90
2022-11-30T11:44:58.510Z,28.48
2022-11-30T11:47:37.928Z,33.55
2022-11-30T11:50:49.951Z,28.73
2022-11-30T11:53:24.068Z,26.15
2022-11-30T11:56:10.761Z,26.02
2022-11-30T11:58:44.272Z,23.50
2022-11-30T12:01:39.413Z,23.92
2022-11-30T12:04:24.667Z,21.95
2022-11-30T12:06:54.066Z,19.55
2022-11-30T12:09:31.276Z,19.85
2022-11-30T12:11:58.124Z,25.97
2022-11-30T12:14:25.940Z,20.27
2022-11-30T12:17:26.219Z,18.77
2022-11-30T12:20:25.021Z,23.40
2022-11-30T12:23:13.535Z,20.30
2022-11-30T12:25:51.016Z,23.35
2022-11-30T12:28:56.649Z,22.25
2022-11-30T12:31:46.351Z,22.75
2022-11-30T12:34:24.208Z,20.48
2022-11-30T12:37:11.833Z,22.63
2022-11-30T12:39:41.458Z,21.77
2022-11-30T12:42:36.016Z,22.70
2022-11-30T12:45:19.188Z,23.70
2022-11-30T12:48:08.665Z,25.17
2022-11-30T12:50:53.854Z,26.05
2022-11-30T12:53:38.245Z,27.30
2022-11-30T12:56:27.832Z,27.17
2022-11-30T12:59:33.941Z,25.13
2022-11-30T13:02:44.778Z,25.42
2022-11-30T13:05:21.247Z,25.80
2022-11-30T13:08:05.507Z,28.80
2022-11-30T13:10:59.576Z,26.10
2022-11-30T13:13:31.640Z,27.10
2022-11-30T13:16:01.497Z,27.83
2022-11-30T13:18:28.870Z,29.27
2022-11-30T13:21:13.908Z,34.13
2022-11-30T13:23:41.334Z,35.45
2022-11-30T13:26:23.200Z,34.75
2022-11-30T13:29:00.923Z,39.88
2022-11-30T13:32:04.260Z,40.97
2022-11-30T13:34:32.826Z,40.25
2022-11-30T13:37:25.831Z,43.23
2022-11-30T13:39:57.472Z,42.90
2022-11-30T13:42:37.718Z,47.70
2022-11-30T13:45:13.458Z,47.70
2022-11-30T13:47:50.425Z,46.67
2022-11-30T13:50:23.184Z,52.95
2022-11-30T13:53:08.189Z,49.17
2022-11-30T13:56:12.102Z,59.88
2022-11-30T13:59:17.486Z,55.78
2022-11-30T14:01:44.308Z,56.67
2022-11-30T14:04:20.132Z,56.78
2022-11-30T14:06:59.308Z,66.80
2022-11-30T14:09:41.246Z,86.32
2022-11-30T14:12:32.947Z,67.05
2022-11-30T14:15:01.051Z,56.65
2022-11-30T14:17:32.897Z,58.28
2022-11-30T14:20:14.226Z,67.63
2022-11-30T14:22:41.256Z,63.15
2022-11-30T14:25:17.214Z,66.18
2022-11-30T14:27:45.534Z,73.97
2022-11-30T14:30:22.805Z,68.07
2022-11-30T14:32:55.574Z,72.55
2022-11-30T14:35:23.152Z,78.13
2022-11-30T14:37:58.046Z,72.95
2022-11-30T14:40:27.642Z,77.10
2022-11-30T14:42:59.989Z,74.93
2022-11-30T14:45:32.931Z,79.00
2022-11-30T14:48:18.252Z,81.43
2022-11-30T14:50:49.476Z,83.13
2022-11-30T14:53:34.412Z,83.47
2022-11-30T14:56:22.484Z,81.13
2022-11-30T15:01:24.460Z,84.32
2022-11-30T15:03:54.297Z,86.57
2022-11-30T15:06:26.669Z,89.90
2022-11-30T15:08:56.599Z,86.95
2022-11-30T15:11:24.344Z,88.40
2022-11-30T15:13:57.677Z,90.93
2022-11-30T15:16:24.463Z,92.88
2022-11-30T15:18:53.217Z,99.85
2022-11-30T15:21:31.823Z,95.78
2022-11-30T15:24:01.105Z,95.22
2022-11-30T15:27:08.635Z,98.85
2022-11-30T15:29:43.950Z,97.93
2022-11-30T15:32:19.958Z,101.68
2022-11-30T15:34:56.961Z,95.55
2022-11-30T15:37:32.198Z,101.50
2022-11-30T15:40:01.136Z,97.65
2022-11-30T15:42:43.571Z,100.95
2022-11-30T15:45:21.717Z,98.78
2022-11-30T15:47:48.816Z,102.55
2022-11-30T15:50:30.633Z,103.50
2022-11-30T15:53:05.302Z,99.95
2022-11-30T15:55:55.811Z,100.88
2022-11-30T15:58:47.738Z,110.22
2022-11-30T16:01:25.880Z,106.63
2022-11-30T16:03:55.615Z,109.95
2022-11-30T16:06:27.394Z,104.78
2022-11-30T16:08:58.730Z,102.28
2022-11-30T16:11:25.873Z,106.10
2022-11-30T16:13:55.854Z,104.78
2022-11-30T16:16:30.973Z,106.55
2022-11-30T16:18:57.806Z,123.47
2022-11-30T16:21:24.651Z,98.93
2022-11-30T16:23:51.487Z,106.95
2022-11-30T16:29:06.051Z,100.43
2022-11-30T16:31:34.268Z,106.00
2022-11-30T16:34:01.188Z,106.18
2022-11-30T16:36:40.603Z,102.97
2022-11-30T16:39:12.045Z,109.85
2022-11-30T16:41:38.867Z,112.00
2022-11-30T16:44:12.217Z,105.68
2022-11-30T16:46:39.263Z,118.13
2022-11-30T16:49:06.220Z,118.78
2022-11-30T16:51:34.739Z,115.07
2022-11-30T16:54:01.679Z,119.72
2022-11-30T16:56:28.577Z,112.28
2022-11-30T16:58:57.948Z,116.15
2022-11-30T17:01:35.908Z,118.25
2022-11-30T17:04:25.024Z,111.53
2022-11-30T17:07:00.435Z,117.00
2022-11-30T17:09:30.547Z,107.05
2022-11-30T17:11:57.503Z,114.90
2022-11-30T17:14:24.281Z,121.63
2022-11-30T17:16:51.215Z,120.53
2022-11-30T17:19:18.232Z,112.07
2022-11-30T17:21:45.122Z,110.28
2022-11-30T17:24:12.890Z,119.28
2022-11-30T17:26:39.989Z,108.05
2022-11-30T17:29:06.847Z,123.68
2022-11-30T17:31:33.707Z,110.78
2022-11-30T17:34:00.522Z,109.10
2022-11-30T17:36:29.223Z,110.22
2022-11-30T17:38:56.624Z,115.45
2022-11-30T17:41:23.792Z,110.75
2022-11-30T17:43:51.958Z,114.73
2022-11-30T17:48:46.502Z,121.50
2022-11-30T17:51:13.464Z,113.07
2022-11-30T17:53:41.553Z,118.78
2022-11-30T17:56:21.947Z,117.10
2022-11-30T17:58:49.332Z,116.80
2022-11-30T18:01:20.628Z,115.65
2022-11-30T18:03:48.320Z,113.00
2022-11-30T18:06:16.112Z,118.23
2022-11-30T18:08:44.671Z,130.63
2022-11-30T18:11:16.895Z,116.53
2022-11-30T18:13:43.988Z,117.63
2022-11-30T18:16:17.007Z,114.57
2022-11-30T18:18:47.687Z,110.20
2022-11-30T18:21:40.730Z,105.80
2022-11-30T18:24:08.003Z,106.53
2022-11-30T18:26:35.569Z,116.25
2022-11-30T18:29:02.969Z,114.68
2022-11-30T18:31:30.794Z,108.15
2022-11-30T18:33:59.714Z,104.30
2022-11-30T18:36:27.448Z,118.72
2022-11-30T18:38:54.659Z,105.72
2022-11-30T18:41:22.204Z,115.38
2022-11-30T18:43:49.052Z,105.57
2022-11-30T18:46:15.964Z,112.72
2022-11-30T18:48:42.934Z,105.40
2022-11-30T18:51:18.534Z,110.88
2022-11-30T18:53:49.261Z,113.85
2022-11-30T18:56:19.242Z,105.95
2022-11-30T18:58:48.069Z,108.07
2022-11-30T19:01:16.188Z,106.63
2022-11-30T19:03:43.661Z,107.50
2022-11-30T19:06:11.267Z,112.35
2022-11-30T19:08:39.979Z,108.03
2022-11-30T19:11:09.197Z,112.72
2022-11-30T19:13:36.457Z,109.22
2022-11-30T19:16:08.950Z,109.25
2022-11-30T19:18:36.364Z,111.25
2022-11-30T19:21:11.003Z,111.38
2022-11-30T19:23:38.628Z,108.13
2022-11-30T19:26:06.945Z,85.55
2022-11-30T19:28:35.219Z,107.85
2022-11-30T19:31:11.332Z,104.82
2022-11-30T19:33:39.974Z,100.25
2022-11-30T19:36:10.071Z,100.18
2022-11-30T19:38:37.116Z,101.15
2022-11-30T19:41:08.641Z,100.38
2022-11-30T19:43:36.605Z,108.60
2022-11-30T19:46:15.902Z,101.75
2022-11-30T19:48:45.235Z,97.30
2022-11-30T19:51:18.617Z,100.03
2022-11-30T19:53:46.064Z,100.65
2022-11-30T19:56:17.305Z,98.03
2022-11-30T19:58:45.772Z,102.55
2022-11-30T20:01:19.364Z,109.43
2022-11-30T20:03:46.305Z,102.47
2022-11-30T20:06:13.346Z,100.93
2022-11-30T20:08:40.918Z,108.40
2022-11-30T20:11:09.005Z,100.32
2022-11-30T20:16:11.291Z,101.47
2022-11-30T20:18:44.168Z,96.47
2022-11-30T20:21:15.640Z,104.13
2022-11-30T20:23:43.693Z,96.15
2022-11-30T20:28:45.859Z,100.97
2022-11-30T20:31:14.976Z,93.57
2022-11-30T20:33:42.504Z,103.90
2022-11-30T20:36:10.744Z,106.93
2022-11-30T20:38:38.439Z,98.43
2022-11-30T20:41:07.949Z,101.35
2022-11-30T20:43:34.813Z,101.68
2022-11-30T20:46:01.658Z,101.47
2022-11-30T20:48:29.236Z,107.65
2022-11-30T20:51:28.831Z,109.45
2022-11-30T20:53:43.438Z,103.53
2022-11-30T20:56:10.891Z,95.53
2022-11-30T20:58:38.267Z,99.60
2022-11-30T21:01:31.361Z,98.60
2022-11-30T21:04:00.503Z,105.63
2022-11-30T21:06:29.078Z,107.18
2022-11-30T21:08:56.055Z,101.93
2022-11-30T21:11:23.306Z,107.63
2022-11-30T21:13:50.932Z,99.35
2022-11-30T21:16:26.898Z,75.18
2022-11-30T21:18:55.236Z,102.13
2022-11-30T21:21:24.339Z,113.88
2022-11-30T21:23:51.566Z,106.28
2022-11-30T21:26:30.293Z,99.33
2022-11-30T21:29:06.778Z,98.35
2022-11-30T21:31:35.005Z,99.18
2022-11-30T21:36:29.176Z,102.90
2022-11-30T21:39:04.466Z,109.60
2022-11-30T21:41:33.142Z,98.45
2022-11-30T21:43:59.915Z,112.75
2022-11-30T21:46:26.741Z,107.40
2022-11-30T21:48:53.560Z,115.15
2022-11-30T21:51:22.999Z,110.93
2022-11-30T21:53:52.116Z,105.38
2022-11-30T21:56:21.965Z,109.10
2022-11-30T21:58:49.954Z,108.38
2022-11-30T22:01:31.527Z,105.28
2022-11-30T22:03:59.790Z,105.53
2022-11-30T22:06:29.837Z,111.40
2022-11-30T22:09:02.548Z,110.68
2022-11-30T22:11:30.723Z,102.82
2022-11-30T22:16:27.075Z,102.80
2022-11-30T22:18:57.984Z,97.25
2022-11-30T22:21:27.753Z,103.38
2022-11-30T22:23:55.752Z,96.55
2022-11-30T22:29:01.927Z,99.85
2022-11-30T22:31:31.922Z,97.53
2022-11-30T22:33:59.462Z,97.03
2022-11-30T22:36:31.538Z,98.07
2022-11-30T22:39:10.531Z,98.30
2022-11-30T22:41:38.554Z,96.55
2022-11-30T22:44:05.371Z,93.90
2022-11-30T22:46:34.189Z,94.93
2022-11-30T22:49:03.669Z,99.45
2022-11-30T22:51:32.481Z,101.40
2022-11-30T22:53:59.623Z,99.38
2022-11-30T22:56:29.012Z,110.60
2022-11-30T22:58:58.980Z,105.75
2022-11-30T23:01:34.635Z,103.88
2022-11-30T23:04:04.623Z,109.82
2022-11-30T23:06:34.327Z,104.78
2022-11-30T23:09:01.675Z,113.50
2022-11-30T23:11:29.720Z,110.78
2022-11-30T23:13:56.712Z,114.57
2022-11-30T23:16:23.846Z,102.40
2022-11-30T23:18:57.414Z,105.30
2022-11-30T23:21:38.944Z,106.78
2022-11-30T23:24:09.471Z,105.32
2022-11-30T23:26:38.248Z,111.50
2022-11-30T23:29:10.867Z,112.65
2022-11-30T23:31:39.045Z,103.47
2022-11-30T23:34:13.434Z,104.28
2022-11-30T23:36:40.229Z,106.38
2022-11-30T23:39:13.215Z,104.82
2022-11-30T23:41:40.209Z,99.63
2022-11-30T23:44:07.501Z,94.57
2022-11-30T23:46:34.857Z,100.47
2022-11-30T23:49:02.068Z,96.45
2022-11-30T23:51:28.929Z,98.27
2022-11-30T23:53:55.794Z,95.90
2022-11-30T23:56:23.949Z,89.88
2022-11-30T23:58:51.881Z,90.53
